createdAt,value
2022-08-12T00:00:14.453Z,48.82
2022-08-12T00:01:14.469Z,48.02
2022-08-12T00:02:14.440Z,48.18
2022-08-12T00:03:14.881Z,48.18
2022-08-12T00:04:15.435Z,47.05
2022-08-12T00:05:14.405Z,46.73
2022-08-12T00:06:14.425Z,48.50
2022-08-12T00:07:14.401Z,49.47
2022-08-12T00:08:14.397Z,47.37
2022-08-12T00:09:14.393Z,46.73
2022-08-12T00:10:14.408Z,46.25
2022-08-12T00:11:14.379Z,45.44
2022-08-12T00:12:14.397Z,47.37
2022-08-12T00:13:14.359Z,46.73
2022-08-12T00:14:14.356Z,45.92
2022-08-12T00:15:14.337Z,46.41
2022-08-12T00:16:14.350Z,46.57
2022-08-12T00:17:14.355Z,47.53
2022-08-12T00:18:14.337Z,48.66
2022-08-12T00:19:14.333Z,48.66
2022-08-12T00:20:14.300Z,45.44
2022-08-12T00:21:14.311Z,48.82
2022-08-12T00:22:14.316Z,47.05
2022-08-12T00:23:14.303Z,46.73
2022-08-12T00:24:14.295Z,48.50
2022-08-12T00:25:14.288Z,48.98
2022-08-12T00:26:22.521Z,46.73
2022-08-12T00:27:15.263Z,48.82
2022-08-12T00:28:14.284Z,47.05
2022-08-12T00:29:14.263Z,47.05
2022-08-12T00:30:14.252Z,47.70
2022-08-12T00:31:14.489Z,47.53
2022-08-12T00:32:16.693Z,46.25
2022-08-12T00:33:16.239Z,47.86
2022-08-12T00:34:14.223Z,47.86
2022-08-12T00:35:14.220Z,50.60
2022-08-12T00:36:18.653Z,47.86
2022-08-12T00:37:15.202Z,47.37
2022-08-12T00:38:14.207Z,46.89
2022-08-12T00:39:14.227Z,45.76
2022-08-12T00:40:14.188Z,47.37
2022-08-12T00:41:14.183Z,49.15
2022-08-12T00:42:14.168Z,48.98
2022-08-12T00:43:14.187Z,47.70
2022-08-12T00:44:14.164Z,46.73
2022-08-12T00:45:14.153Z,46.25
2022-08-12T00:46:14.144Z,46.57
2022-08-12T00:47:25.654Z,46.89
2022-08-12T00:48:16.154Z,47.37
2022-08-12T00:49:14.132Z,49.31
2022-08-12T00:50:14.123Z,48.66
2022-08-12T00:51:14.111Z,48.50
2022-08-12T00:52:14.103Z,50.11
2022-08-12T00:53:14.095Z,47.86
2022-08-12T00:54:14.102Z,47.53
2022-08-12T00:55:14.080Z,48.02
2022-08-12T00:56:14.071Z,46.41
2022-08-12T00:57:14.068Z,47.86
2022-08-12T00:58:14.059Z,47.86
2022-08-12T00:59:14.085Z,47.37
2022-08-12T01:00:14.057Z,46.57
2022-08-12T01:01:14.074Z,45.28
2022-08-12T01:02:14.114Z,45.76
2022-08-12T01:03:14.027Z,46.41
2022-08-12T01:04:14.039Z,44.63
2022-08-12T01:05:14.015Z,44.79
2022-08-12T01:06:14.011Z,46.41
2022-08-12T01:07:14.002Z,44.79
2022-08-12T01:08:13.999Z,44.96
2022-08-12T01:09:13.987Z,44.63
2022-08-12T01:10:13.994Z,44.47
2022-08-12T01:11:13.974Z,44.63
2022-08-12T01:12:13.966Z,47.05
2022-08-12T01:13:19.490Z,45.76
2022-08-12T01:14:14.960Z,43.99
2022-08-12T01:15:13.979Z,43.83
2022-08-12T01:16:13.939Z,50.76
2022-08-12T01:17:13.939Z,44.79
2022-08-12T01:18:13.930Z,44.63
2022-08-12T01:19:13.910Z,48.98
2022-08-12T01:20:13.943Z,46.41
2022-08-12T01:21:13.914Z,44.79
2022-08-12T01:22:13.894Z,49.31
2022-08-12T01:23:13.889Z,47.37
2022-08-12T01:24:30.266Z,45.76
2022-08-12T01:25:14.898Z,46.73
2022-08-12T01:26:13.871Z,45.76
2022-08-12T01:27:13.862Z,48.82
2022-08-12T01:28:13.859Z,48.82
2022-08-12T01:29:13.857Z,50.11
2022-08-12T01:30:13.842Z,49.47
2022-08-12T01:31:16.285Z,46.25
2022-08-12T01:32:14.824Z,46.89
2022-08-12T01:33:13.810Z,45.76
2022-08-12T01:34:36.443Z,46.08
2022-08-12T01:35:14.798Z,44.79
2022-08-12T01:36:13.813Z,50.43
2022-08-12T01:37:13.794Z,47.21
2022-08-12T01:38:13.792Z,45.92
2022-08-12T01:39:13.811Z,46.25
2022-08-12T01:40:34.535Z,48.18
2022-08-12T01:41:14.800Z,47.86
2022-08-12T01:42:13.763Z,51.24
2022-08-12T01:43:13.746Z,50.60
2022-08-12T01:44:13.745Z,45.92
2022-08-12T01:45:14.737Z,50.11
2022-08-12T01:46:13.737Z,47.21
2022-08-12T01:47:13.722Z,48.34
2022-08-12T01:48:13.726Z,48.02
2022-08-12T01:49:13.706Z,46.25
2022-08-12T01:50:13.690Z,46.73
2022-08-12T01:51:13.689Z,48.98
2022-08-12T01:52:22.189Z,46.25
2022-08-12T01:53:14.702Z,45.60
2022-08-12T01:54:13.671Z,45.60
2022-08-12T01:55:13.658Z,46.73
2022-08-12T01:56:13.653Z,47.21
2022-08-12T01:57:13.653Z,46.25
2022-08-12T01:58:13.633Z,45.76
2022-08-12T01:59:13.660Z,49.31
2022-08-12T02:00:13.633Z,46.57
2022-08-12T02:01:13.701Z,44.79
2022-08-12T02:02:13.616Z,48.66
2022-08-12T02:03:13.613Z,51.24
2022-08-12T02:04:13.590Z,47.21
2022-08-12T02:05:13.586Z,45.92
2022-08-12T02:06:13.581Z,49.31
2022-08-12T02:07:13.574Z,48.82
2022-08-12T02:08:13.581Z,48.66
2022-08-12T02:09:13.557Z,48.02
2022-08-12T02:10:50.158Z,50.60
2022-08-12T02:11:14.546Z,46.41
2022-08-12T02:12:13.544Z,46.73
2022-08-12T02:13:13.533Z,50.11
2022-08-12T02:14:13.534Z,48.50
2022-08-12T02:15:13.506Z,45.44
2022-08-12T02:16:13.513Z,46.89
2022-08-12T02:17:13.496Z,47.05
2022-08-12T02:18:13.502Z,46.41
2022-08-12T02:19:22.558Z,45.92
2022-08-12T02:20:14.478Z,47.37
2022-08-12T02:21:13.477Z,47.86
2022-08-12T02:22:13.474Z,44.79
2022-08-12T02:23:13.456Z,45.76
2022-08-12T02:24:13.453Z,52.05
2022-08-12T02:25:13.467Z,47.86
2022-08-12T02:26:13.440Z,47.53
2022-08-12T02:27:13.438Z,50.43
2022-08-12T02:28:13.417Z,51.72
2022-08-12T02:29:13.421Z,48.50
2022-08-12T02:30:13.433Z,50.11
2022-08-12T02:31:13.397Z,49.79
2022-08-12T02:32:13.393Z,47.86
2022-08-12T02:33:13.387Z,48.34
2022-08-12T02:34:13.373Z,48.50
2022-08-12T02:35:13.370Z,48.34
2022-08-12T02:36:13.378Z,48.82
2022-08-12T02:37:13.357Z,52.53
2022-08-12T02:38:13.350Z,48.82
2022-08-12T02:39:13.376Z,49.47
2022-08-12T02:40:13.343Z,52.69
2022-08-12T02:41:13.345Z,51.24
2022-08-12T02:42:13.322Z,51.88
2022-08-12T02:43:13.312Z,49.47
2022-08-12T02:44:14.304Z,49.47
2022-08-12T02:45:13.301Z,49.63
2022-08-12T02:46:14.852Z,49.95
2022-08-12T02:47:55.597Z,52.37
2022-08-12T02:48:14.286Z,52.21
2022-08-12T02:49:13.268Z,52.85
2022-08-12T02:50:13.268Z,50.27
2022-08-12T02:51:13.240Z,50.92
2022-08-12T02:52:13.264Z,53.50
2022-08-12T02:53:13.244Z,50.11
2022-08-12T02:54:13.236Z,48.82
2022-08-12T02:55:13.241Z,50.76
2022-08-12T02:56:14.221Z,51.08
2022-08-12T02:57:13.213Z,51.88
2022-08-12T02:58:14.650Z,49.15
2022-08-12T02:59:13.198Z,50.27
2022-08-12T03:00:13.193Z,49.31
2022-08-12T03:01:13.243Z,53.66
2022-08-12T03:02:13.175Z,53.50
2022-08-12T03:03:13.231Z,50.11
2022-08-12T03:04:20.163Z,50.92
2022-08-12T03:05:14.144Z,50.92
2022-08-12T03:06:13.149Z,52.69
2022-08-12T03:07:13.140Z,51.56
2022-08-12T03:08:20.179Z,47.86
2022-08-12T03:09:14.148Z,50.11
2022-08-12T03:10:15.819Z,50.60
2022-08-12T03:11:14.515Z,49.63
2022-08-12T03:12:19.917Z,53.98
2022-08-12T03:13:14.105Z,50.27
2022-08-12T03:14:13.109Z,51.72
2022-08-12T03:15:13.094Z,54.14
2022-08-12T03:16:13.082Z,53.33
2022-08-12T03:17:13.076Z,52.21
2022-08-12T03:18:25.978Z,53.50
2022-08-12T03:19:14.084Z,56.24
2022-08-12T03:20:13.048Z,55.59
2022-08-12T03:21:14.048Z,53.01
2022-08-12T03:22:13.046Z,56.24
2022-08-12T03:23:28.736Z,54.79
2022-08-12T03:24:14.052Z,57.36
2022-08-12T03:25:13.020Z,56.40
2022-08-12T03:26:13.019Z,54.46
2022-08-12T03:27:13.022Z,55.75
2022-08-12T03:28:23.591Z,55.75
2022-08-12T03:29:13.997Z,56.88
2022-08-12T03:30:13.006Z,55.91
2022-08-12T03:31:12.982Z,57.20
2022-08-12T03:32:35.051Z,56.24
2022-08-12T03:33:13.960Z,56.07
2022-08-12T03:34:12.956Z,55.11
2022-08-12T03:35:40.580Z,56.24
2022-08-12T03:36:13.942Z,55.11
2022-08-12T03:37:12.935Z,56.72
2022-08-12T03:38:12.923Z,55.75
2022-08-12T03:39:12.995Z,54.62
2022-08-12T03:40:12.989Z,55.27
2022-08-12T03:41:12.919Z,55.75
2022-08-12T03:42:12.891Z,53.33
2022-08-12T03:43:12.900Z,55.75
2022-08-12T03:44:12.890Z,55.59
2022-08-12T03:45:12.878Z,55.27
2022-08-12T03:46:12.887Z,57.36
2022-08-12T03:47:12.874Z,56.07
2022-08-12T03:48:18.708Z,56.72
2022-08-12T03:49:13.858Z,55.43
2022-08-12T03:50:12.855Z,52.85
2022-08-12T03:51:12.853Z,53.33
2022-08-12T03:52:12.855Z,55.11
2022-08-12T03:53:12.839Z,53.33
2022-08-12T03:54:12.831Z,54.95
2022-08-12T03:55:12.826Z,54.46
2022-08-12T03:56:12.820Z,54.30
2022-08-12T03:57:12.831Z,54.79
2022-08-12T03:58:12.801Z,52.85
2022-08-12T03:59:12.802Z,54.62
2022-08-12T04:00:24.129Z,54.46
2022-08-12T04:01:13.824Z,56.88
2022-08-12T04:02:12.779Z,54.95
2022-08-12T04:03:13.075Z,56.24
2022-08-12T04:04:13.765Z,55.11
2022-08-12T04:05:12.763Z,55.91
2022-08-12T04:06:12.752Z,56.56
2022-08-12T04:07:12.745Z,55.43
2022-08-12T04:08:12.745Z,54.95
2022-08-12T04:09:15.694Z,55.75
2022-08-12T04:10:12.724Z,56.72
2022-08-12T04:11:12.722Z,55.43
2022-08-12T04:12:12.713Z,54.79
2022-08-12T04:13:12.723Z,54.95
2022-08-12T04:14:12.710Z,54.46
2022-08-12T04:15:12.722Z,54.79
2022-08-12T04:16:12.686Z,55.91
2022-08-12T04:17:12.683Z,55.59
2022-08-12T04:18:12.680Z,56.40
2022-08-12T04:19:12.680Z,54.14
2022-08-12T04:20:12.657Z,56.56
2022-08-12T04:21:12.646Z,56.56
2022-08-12T04:22:12.667Z,56.24
2022-08-12T04:23:16.959Z,55.91
2022-08-12T04:24:12.643Z,55.91
2022-08-12T04:25:12.638Z,53.98
2022-08-12T04:26:12.634Z,57.20
2022-08-12T04:27:12.631Z,58.17
2022-08-12T04:28:13.481Z,56.24
2022-08-12T04:29:12.598Z,58.33
2022-08-12T04:30:29.705Z,56.56
2022-08-12T04:31:13.591Z,54.79
2022-08-12T04:32:12.592Z,55.27
2022-08-12T04:33:12.582Z,55.91
2022-08-12T04:34:12.575Z,55.43
2022-08-12T04:35:12.577Z,57.04
2022-08-12T04:36:12.562Z,54.62
2022-08-12T04:37:12.567Z,55.75
2022-08-12T04:38:12.542Z,58.01
2022-08-12T04:39:12.627Z,57.20
2022-08-12T04:40:12.555Z,56.40
2022-08-12T04:41:12.534Z,57.85
2022-08-12T04:42:12.533Z,57.20
2022-08-12T04:44:00.376Z,56.72
2022-08-12T04:44:13.514Z,57.36
2022-08-12T04:45:12.513Z,58.49
2022-08-12T04:46:12.505Z,56.56
2022-08-12T04:47:12.505Z,56.72
2022-08-12T04:48:12.493Z,56.72
2022-08-12T04:49:12.495Z,57.36
2022-08-12T04:50:35.015Z,57.36
2022-08-12T04:51:13.471Z,56.72
2022-08-12T04:52:12.474Z,59.30
2022-08-12T04:53:12.462Z,58.01
2022-08-12T04:54:12.454Z,58.17
2022-08-12T04:55:12.461Z,58.01
2022-08-12T04:56:12.448Z,56.07
2022-08-12T04:57:12.465Z,58.33
2022-08-12T04:58:12.434Z,57.04
2022-08-12T04:59:12.426Z,57.36
2022-08-12T05:00:12.434Z,55.75
2022-08-12T05:01:12.406Z,58.01
2022-08-12T05:02:16.945Z,57.04
2022-08-12T05:03:13.397Z,56.88
2022-08-12T05:04:12.393Z,58.33
2022-08-12T05:05:12.385Z,56.56
2022-08-12T05:06:12.401Z,56.56
2022-08-12T05:07:13.381Z,56.24
2022-08-12T05:08:12.378Z,56.56
2022-08-12T05:09:13.621Z,56.56
2022-08-12T05:10:13.159Z,56.40
2022-08-12T05:11:12.358Z,55.11
2022-08-12T05:12:12.350Z,56.88
2022-08-12T05:13:12.381Z,55.27
2022-08-12T05:14:12.330Z,55.27
2022-08-12T05:15:21.277Z,54.46
2022-08-12T05:16:14.344Z,56.07
2022-08-12T05:17:12.318Z,55.75
2022-08-12T05:18:19.649Z,55.75
2022-08-12T05:19:18.708Z,54.62
2022-08-12T05:20:13.305Z,55.91
2022-08-12T05:21:12.290Z,55.59
2022-08-12T05:22:12.277Z,55.91
2022-08-12T05:23:13.627Z,55.75
2022-08-12T05:24:13.293Z,56.07
2022-08-12T05:25:12.264Z,55.43
2022-08-12T05:26:12.245Z,54.46
2022-08-12T05:27:12.253Z,53.50
2022-08-12T05:28:12.245Z,53.98
2022-08-12T05:30:06.534Z,52.85
2022-08-12T05:30:13.233Z,52.37
2022-08-12T05:31:12.217Z,51.88
2022-08-12T05:32:12.206Z,53.50
2022-08-12T05:33:12.212Z,53.33
2022-08-12T05:34:12.211Z,52.85
2022-08-12T05:35:12.197Z,52.53
2022-08-12T05:36:12.189Z,52.69
2022-08-12T05:37:12.170Z,53.98
2022-08-12T05:38:12.169Z,54.30
2022-08-12T05:39:12.211Z,53.82
2022-08-12T05:40:12.164Z,54.14
2022-08-12T05:41:12.153Z,53.50
2022-08-12T05:42:12.146Z,54.30
2022-08-12T05:43:12.133Z,53.50
2022-08-12T05:44:12.125Z,54.30
2022-08-12T05:45:12.113Z,53.33
2022-08-12T05:46:12.117Z,54.46
2022-08-12T05:47:12.105Z,54.14
2022-08-12T05:48:12.104Z,52.69
2022-08-12T05:49:12.159Z,53.33
2022-08-12T05:50:12.081Z,53.66
2022-08-12T05:51:12.098Z,52.37
2022-08-12T05:52:12.070Z,53.66
2022-08-12T05:53:13.078Z,54.79
2022-08-12T05:54:12.167Z,55.27
2022-08-12T05:55:12.053Z,55.91
2022-08-12T05:56:12.058Z,54.79
2022-08-12T05:57:12.033Z,52.69
2022-08-12T05:58:12.029Z,52.05
2022-08-12T05:59:12.128Z,55.27
2022-08-12T06:00:12.017Z,54.14
2022-08-12T06:02:09.254Z,52.85
2022-08-12T06:02:13.754Z,54.46
2022-08-12T06:03:13.054Z,54.30
2022-08-12T06:04:11.990Z,53.98
2022-08-12T06:05:11.973Z,52.37
2022-08-12T06:06:11.986Z,52.53
2022-08-12T06:08:00.004Z,51.40
2022-08-12T06:08:12.957Z,52.37
2022-08-12T06:09:11.945Z,53.17
2022-08-12T06:10:11.958Z,52.69
2022-08-12T06:11:11.933Z,52.69
2022-08-12T06:12:11.941Z,50.60
2022-08-12T06:13:11.921Z,52.85
2022-08-12T06:14:12.344Z,53.33
2022-08-12T06:15:11.902Z,52.37
2022-08-12T06:16:11.897Z,50.92
2022-08-12T06:17:11.905Z,51.24
2022-08-12T06:18:15.926Z,53.01
2022-08-12T06:19:11.885Z,52.69
2022-08-12T06:20:28.344Z,53.33
2022-08-12T06:21:12.866Z,51.88
2022-08-12T06:22:11.853Z,52.05
2022-08-12T06:23:12.113Z,51.72
2022-08-12T06:24:11.841Z,51.72
2022-08-12T06:25:17.524Z,51.72
2022-08-12T06:26:13.101Z,50.60
2022-08-12T06:27:11.817Z,51.56
2022-08-12T06:28:11.801Z,50.60
2022-08-12T06:29:12.810Z,50.60
2022-08-12T06:30:17.196Z,50.92
2022-08-12T06:31:29.237Z,53.33
2022-08-12T06:32:13.790Z,52.21
2022-08-12T06:33:21.495Z,51.24
2022-08-12T06:35:26.534Z,52.05
2022-08-12T06:35:26.966Z,51.24
2022-08-12T06:36:12.762Z,50.43
2022-08-12T06:37:11.777Z,51.56
2022-08-12T06:38:11.766Z,51.40
2022-08-12T06:39:14.759Z,50.60
2022-08-12T06:40:11.722Z,52.53
2022-08-12T06:41:11.733Z,51.72
2022-08-12T06:42:31.803Z,51.24
2022-08-12T06:43:12.705Z,50.11
2022-08-12T06:44:11.712Z,51.56
2022-08-12T06:45:12.520Z,50.92
2022-08-12T06:46:12.693Z,50.11
2022-08-12T06:47:11.682Z,50.43
2022-08-12T06:48:11.681Z,52.21
2022-08-12T06:49:11.666Z,50.27
2022-08-12T06:50:11.655Z,50.92
2022-08-12T06:51:11.661Z,50.27
2022-08-12T06:52:11.673Z,51.08
2022-08-12T06:53:11.646Z,51.24
2022-08-12T06:54:11.641Z,48.50
2022-08-12T06:55:11.626Z,49.15
2022-08-12T06:56:12.632Z,50.27
2022-08-12T06:58:05.662Z,47.86
2022-08-12T06:58:12.603Z,49.31
2022-08-12T06:59:11.613Z,47.05
2022-08-12T07:00:11.598Z,49.15
2022-08-12T07:01:11.648Z,49.47
2022-08-12T07:02:11.597Z,47.86
2022-08-12T07:03:22.661Z,48.18
2022-08-12T07:04:33.898Z,48.66
2022-08-12T07:05:13.557Z,49.15
2022-08-12T07:06:11.548Z,48.98
2022-08-12T07:07:11.562Z,45.76
2022-08-12T07:08:11.533Z,48.66
2022-08-12T07:09:15.939Z,49.31
2022-08-12T07:10:13.511Z,49.31
2022-08-12T07:11:11.517Z,46.89
2022-08-12T07:12:11.570Z,49.63
2022-08-12T07:13:11.524Z,48.82
2022-08-12T07:14:13.465Z,48.02
2022-08-12T07:15:11.490Z,47.53
2022-08-12T07:16:11.478Z,47.53
2022-08-12T07:17:11.474Z,48.02
2022-08-12T07:18:11.481Z,47.53
2022-08-12T07:19:11.468Z,47.86
2022-08-12T07:20:29.759Z,46.89
2022-08-12T07:21:13.458Z,47.70
2022-08-12T07:22:11.450Z,46.41
2022-08-12T07:23:11.446Z,47.05
2022-08-12T07:24:11.424Z,47.21
2022-08-12T07:25:11.421Z,47.70
2022-08-12T07:26:11.409Z,47.86
2022-08-12T07:27:11.417Z,48.66
2022-08-12T07:28:16.829Z,47.70
2022-08-12T07:29:12.390Z,49.95
2022-08-12T07:30:11.394Z,46.73
2022-08-12T07:31:11.387Z,46.41
2022-08-12T07:32:11.373Z,48.34
2022-08-12T07:33:11.373Z,45.60
2022-08-12T07:34:11.381Z,46.73
2022-08-12T07:35:11.344Z,47.05
2022-08-12T07:36:11.345Z,48.50
2022-08-12T07:37:11.341Z,46.73
2022-08-12T07:38:11.339Z,48.18
2022-08-12T07:39:11.365Z,45.28
2022-08-12T07:40:11.348Z,45.44
2022-08-12T07:41:15.599Z,45.12
2022-08-12T07:42:11.307Z,46.08
2022-08-12T07:43:11.309Z,44.79
2022-08-12T07:44:11.301Z,45.44
2022-08-12T07:45:11.297Z,44.15
2022-08-12T07:46:11.289Z,44.79
2022-08-12T07:47:12.659Z,44.79
2022-08-12T07:48:11.265Z,46.25
2022-08-12T07:49:11.273Z,45.28
2022-08-12T07:50:11.258Z,47.05
2022-08-12T07:51:12.253Z,46.73
2022-08-12T07:52:12.286Z,43.83
2022-08-12T07:53:11.345Z,44.63
2022-08-12T07:54:11.238Z,43.51
2022-08-12T07:55:11.235Z,44.47
2022-08-12T07:56:11.218Z,45.28
2022-08-12T07:57:11.213Z,46.73
2022-08-12T07:58:11.231Z,45.92
2022-08-12T07:59:11.233Z,44.79
2022-08-12T08:00:11.196Z,47.53
2022-08-12T08:01:11.832Z,46.25
2022-08-12T08:02:11.258Z,45.60
2022-08-12T08:03:11.202Z,45.12
2022-08-12T08:04:15.147Z,45.92
2022-08-12T08:05:12.173Z,43.83
2022-08-12T08:06:18.985Z,44.79
2022-08-12T08:07:12.161Z,43.34
2022-08-12T08:08:11.153Z,44.79
2022-08-12T08:09:11.145Z,43.67
2022-08-12T08:10:11.141Z,46.08
2022-08-12T08:11:11.140Z,46.57
2022-08-12T08:12:19.352Z,47.37
2022-08-12T08:13:12.128Z,44.31
2022-08-12T08:14:11.140Z,46.25
2022-08-12T08:15:11.101Z,43.83
2022-08-12T08:16:11.106Z,43.99
2022-08-12T08:17:11.100Z,42.06
2022-08-12T08:18:11.079Z,41.57
2022-08-12T08:19:11.101Z,44.31
2022-08-12T08:20:11.077Z,42.70
2022-08-12T08:21:11.062Z,41.73
2022-08-12T08:22:12.069Z,44.31
2022-08-12T08:23:11.062Z,43.18
2022-08-12T08:24:11.054Z,43.83
2022-08-12T08:25:34.643Z,40.61
2022-08-12T08:26:12.047Z,38.51
2022-08-12T08:27:11.038Z,43.34
2022-08-12T08:28:11.032Z,39.96
2022-08-12T08:29:11.041Z,43.67
2022-08-12T08:30:11.013Z,40.61
2022-08-12T08:31:11.027Z,42.70
2022-08-12T08:32:11.011Z,45.12
2022-08-12T08:34:04.216Z,44.31
2022-08-12T08:34:40.204Z,44.15
2022-08-12T08:35:12.992Z,40.28
2022-08-12T08:36:23.982Z,44.79
2022-08-12T08:37:15.527Z,43.02
2022-08-12T08:38:12.548Z,45.76
2022-08-12T08:39:10.995Z,46.57
2022-08-12T08:40:10.980Z,45.60
2022-08-12T08:41:10.961Z,43.99
2022-08-12T08:42:16.798Z,44.63
2022-08-12T08:43:11.949Z,42.06
2022-08-12T08:44:11.560Z,43.34
2022-08-12T08:45:11.036Z,42.22
2022-08-12T08:46:10.936Z,43.18
2022-08-12T08:47:10.940Z,42.22
2022-08-12T08:48:10.943Z,42.06
2022-08-12T08:49:10.904Z,43.99
2022-08-12T08:50:10.909Z,43.99
2022-08-12T08:51:10.913Z,45.12
2022-08-12T08:52:10.912Z,41.57
2022-08-12T08:53:10.888Z,41.89
2022-08-12T08:54:10.888Z,40.93
2022-08-12T08:55:10.877Z,43.83
2022-08-12T08:56:10.880Z,42.22
2022-08-12T08:57:10.895Z,43.67
2022-08-12T08:58:10.869Z,44.31
2022-08-12T08:59:10.865Z,42.06
2022-08-12T09:00:10.857Z,44.15
2022-08-12T09:01:10.970Z,43.02
2022-08-12T09:02:11.927Z,42.22
2022-08-12T09:05:06.950Z,42.22
2022-08-12T09:05:09.713Z,40.28
2022-08-12T09:05:16.343Z,45.12
2022-08-12T09:06:14.508Z,43.83
2022-08-12T09:07:16.624Z,44.15
2022-08-12T09:08:14.529Z,42.54
2022-08-12T09:10:31.323Z,44.63
2022-08-12T09:11:11.800Z,41.41
2022-08-12T09:12:13.336Z,44.63
2022-08-12T09:13:23.353Z,43.51
2022-08-12T09:15:18.985Z,45.44
2022-08-12T09:16:10.793Z,43.18
2022-08-12T09:17:10.769Z,43.18
2022-08-12T09:18:10.792Z,45.28
2022-08-12T09:19:27.609Z,45.28
2022-08-12T09:20:11.753Z,48.66
2022-08-12T09:21:10.768Z,42.54
2022-08-12T09:22:10.740Z,43.34
2022-08-12T09:23:59.788Z,45.76
2022-08-12T09:24:11.737Z,42.06
2022-08-12T09:25:10.729Z,45.60
2022-08-12T09:26:11.726Z,43.99
2022-08-12T09:27:12.275Z,45.44
2022-08-12T09:28:10.942Z,45.92
2022-08-12T09:29:12.331Z,45.60
2022-08-12T09:30:14.131Z,46.25
2022-08-12T09:32:07.820Z,45.44
2022-08-12T09:32:56.593Z,44.79
2022-08-12T09:33:14.757Z,42.22
2022-08-12T09:34:29.836Z,41.09
2022-08-12T09:35:21.866Z,42.22
2022-08-12T09:36:11.669Z,42.86
2022-08-12T09:37:18.649Z,41.09
2022-08-12T09:38:28.248Z,39.96
2022-08-12T09:40:03.554Z,43.83
2022-08-12T09:40:57.841Z,42.22
2022-08-12T09:42:09.225Z,41.09
2022-08-12T09:42:39.158Z,43.18
2022-08-12T09:43:17.457Z,43.67
2022-08-12T09:44:16.964Z,43.02
2022-08-12T09:45:19.424Z,42.86
2022-08-12T09:46:21.509Z,41.41
2022-08-12T09:47:11.610Z,42.86
2022-08-12T09:48:10.605Z,41.57
2022-08-12T09:49:13.215Z,42.22
2022-08-12T09:50:20.303Z,42.06
2022-08-12T09:51:22.086Z,43.02
2022-08-12T09:52:11.591Z,41.41
2022-08-12T09:54:31.496Z,43.02
2022-08-12T09:54:34.111Z,44.31
2022-08-12T09:56:05.458Z,41.25
2022-08-12T09:56:57.056Z,42.86
2022-08-12T09:58:08.086Z,42.86
2022-08-12T09:58:58.848Z,42.70
2022-08-12T09:59:11.561Z,43.18
2022-08-12T10:00:16.138Z,44.31
2022-08-12T10:01:19.688Z,43.18
2022-08-12T10:02:43.069Z,42.70
2022-08-12T10:03:31.922Z,45.28
2022-08-12T10:04:11.812Z,45.12
2022-08-12T10:05:13.780Z,40.93
2022-08-12T10:06:26.956Z,45.92
2022-08-12T10:07:15.064Z,46.25
2022-08-12T10:08:11.512Z,45.28
2022-08-12T10:09:10.521Z,43.34
2022-08-12T10:10:22.639Z,43.34
2022-08-12T10:11:20.033Z,43.83
2022-08-12T10:12:13.171Z,43.18
2022-08-12T10:13:13.177Z,41.89
2022-08-12T10:14:13.470Z,42.06
2022-08-12T10:15:46.333Z,43.02
2022-08-12T10:16:18.707Z,41.41
2022-08-12T10:17:12.449Z,40.77
2022-08-12T10:18:10.444Z,39.32
2022-08-12T10:19:17.031Z,42.06
2022-08-12T10:20:12.130Z,40.28
2022-08-12T10:21:10.511Z,40.93
2022-08-12T10:22:17.270Z,39.32
2022-08-12T10:23:12.701Z,42.86
2022-08-12T10:24:10.444Z,42.38
2022-08-12T10:25:17.570Z,40.28
2022-08-12T10:26:36.960Z,42.54
2022-08-12T10:27:14.086Z,41.73
2022-08-12T10:28:22.035Z,41.41
2022-08-12T10:30:01.959Z,43.51
2022-08-12T10:30:41.908Z,43.67
2022-08-12T10:31:16.557Z,43.34
2022-08-12T10:32:20.933Z,42.86
2022-08-12T10:33:18.060Z,42.22
2022-08-12T10:34:23.632Z,42.70
2022-08-12T10:35:12.411Z,41.25
2022-08-12T10:36:10.410Z,42.22
2022-08-12T10:37:21.005Z,43.67
2022-08-12T10:38:34.247Z,46.57
2022-08-12T10:40:00.698Z,44.15
2022-08-12T10:40:15.735Z,41.89
2022-08-12T10:41:12.380Z,41.09
2022-08-12T10:42:11.375Z,42.38
2022-08-12T10:43:10.396Z,42.38
2022-08-12T10:44:11.371Z,43.51
2022-08-12T10:45:17.073Z,41.89
2022-08-12T10:46:13.710Z,43.02
2022-08-12T10:47:26.216Z,44.63
2022-08-12T10:48:21.804Z,44.31
2022-08-12T10:50:03.623Z,43.67
2022-08-12T10:50:28.302Z,43.18
2022-08-12T10:51:56.473Z,41.41
2022-08-12T10:52:34.082Z,41.41
2022-08-12T10:53:11.282Z,41.73
2022-08-12T10:54:13.126Z,40.93
2022-08-12T10:55:13.473Z,44.47
2022-08-12T10:56:10.271Z,40.93
2022-08-12T10:57:18.153Z,40.61
2022-08-12T10:58:15.062Z,43.18
2022-08-12T10:59:11.575Z,43.83
2022-08-12T11:00:31.125Z,42.06
2022-08-12T11:01:49.575Z,42.22
2022-08-12T11:04:18.135Z,42.86
2022-08-12T11:04:24.605Z,43.99
2022-08-12T11:04:28.475Z,43.67
2022-08-12T11:07:05.358Z,42.22
2022-08-12T11:07:05.910Z,42.86
2022-08-12T11:08:36.639Z,43.02
2022-08-12T11:08:38.074Z,40.93
2022-08-12T11:09:11.456Z,41.89
2022-08-12T11:10:10.245Z,45.76
2022-08-12T11:11:13.650Z,43.83
2022-08-12T11:12:56.675Z,44.63
2022-08-12T11:13:11.183Z,45.12
2022-08-12T11:14:48.025Z,44.31
2022-08-12T11:15:18.997Z,43.67
2022-08-12T11:16:22.175Z,46.73
2022-08-12T11:17:34.115Z,46.25
2022-08-12T11:18:11.694Z,43.51
2022-08-12T11:19:11.154Z,42.06
2022-08-12T11:20:11.018Z,41.89
2022-08-12T11:21:15.903Z,43.83
2022-08-12T11:22:11.151Z,43.83
2022-08-12T11:23:25.167Z,42.70
2022-08-12T11:24:30.539Z,43.18
2022-08-12T11:25:11.497Z,43.34
2022-08-12T11:26:10.109Z,43.67
2022-08-12T11:27:11.403Z,43.51
2022-08-12T11:28:10.147Z,42.22
2022-08-12T11:29:22.847Z,41.57
2022-08-12T11:30:31.371Z,43.83
2022-08-12T11:31:12.245Z,42.38
2022-08-12T11:32:10.070Z,43.67
2022-08-12T11:33:12.000Z,42.38
2022-08-12T11:34:51.106Z,45.12
2022-08-12T11:35:11.648Z,42.54
2022-08-12T11:36:16.672Z,43.18
2022-08-12T11:37:25.477Z,44.47
2022-08-12T11:38:11.017Z,44.15
2022-08-12T11:39:12.537Z,45.12
2022-08-12T11:40:10.019Z,44.47
2022-08-12T11:41:10.001Z,45.28
2022-08-12T11:42:09.993Z,46.57
2022-08-12T11:43:18.744Z,43.99
2022-08-12T11:44:36.765Z,44.47
2022-08-12T11:45:10.989Z,45.28
2022-08-12T11:46:10.005Z,44.63
2022-08-12T11:47:09.970Z,44.31
2022-08-12T11:48:09.965Z,45.28
2022-08-12T11:49:10.999Z,43.51
2022-08-12T11:50:11.720Z,41.09
2022-08-12T11:51:09.952Z,41.89
2022-08-12T11:52:33.929Z,47.21
2022-08-12T11:53:57.199Z,43.51
2022-08-12T11:54:10.943Z,44.63
2022-08-12T11:55:09.937Z,46.25
2022-08-12T11:56:11.405Z,44.63
2022-08-12T11:58:08.122Z,43.34
2022-08-12T11:59:35.817Z,44.79
2022-08-12T12:02:11.926Z,45.28
2022-08-12T12:03:09.941Z,43.67
2022-08-12T12:04:10.410Z,45.76
2022-08-12T12:05:09.889Z,43.99
2022-08-12T12:06:09.867Z,43.67
2022-08-12T12:07:11.326Z,41.89
2022-08-12T12:08:38.083Z,42.86
2022-08-12T12:09:10.860Z,45.60
2022-08-12T12:10:09.876Z,43.51
2022-08-12T12:11:09.849Z,42.86
2022-08-12T12:12:09.845Z,43.99
2022-08-12T12:13:11.632Z,45.12
2022-08-12T12:14:11.553Z,43.51
2022-08-12T12:15:10.831Z,45.12
2022-08-12T12:16:09.806Z,45.28
2022-08-12T12:17:09.839Z,43.18
2022-08-12T12:18:09.815Z,45.12
2022-08-12T12:19:10.023Z,43.51
2022-08-12T12:20:09.793Z,43.18
2022-08-12T12:21:09.792Z,46.08
2022-08-12T12:22:10.143Z,42.86
2022-08-12T12:23:28.831Z,43.99
2022-08-12T12:24:10.776Z,46.25
2022-08-12T12:25:13.787Z,45.28
2022-08-12T12:26:18.536Z,45.44
2022-08-12T12:27:10.757Z,42.86
2022-08-12T12:28:09.755Z,44.31
2022-08-12T12:30:17.721Z,41.09
2022-08-12T12:30:17.963Z,42.70
2022-08-12T12:31:14.972Z,46.25
2022-08-12T12:32:12.273Z,47.53
2022-08-12T12:33:09.727Z,44.79
2022-08-12T12:34:10.709Z,43.34
2022-08-12T12:35:13.561Z,47.05
2022-08-12T12:36:20.588Z,46.41
2022-08-12T12:37:10.689Z,48.02
2022-08-12T12:38:12.165Z,47.21
2022-08-12T12:39:10.545Z,47.05
2022-08-12T12:40:09.671Z,45.76
2022-08-12T12:41:14.217Z,45.92
2022-08-12T12:42:44.332Z,46.57
2022-08-12T12:43:11.081Z,43.67
2022-08-12T12:44:13.316Z,45.76
2022-08-12T12:45:19.475Z,45.44
2022-08-12T12:46:11.628Z,44.79
2022-08-12T12:47:29.398Z,45.76
2022-08-12T12:48:10.617Z,43.99
2022-08-12T12:49:11.175Z,45.44
2022-08-12T12:50:09.613Z,45.12
2022-08-12T12:51:10.605Z,44.96
2022-08-12T12:52:18.586Z,44.47
2022-08-12T12:53:10.585Z,43.99
2022-08-12T12:54:10.612Z,42.54
2022-08-12T12:55:10.583Z,43.83
2022-08-12T12:56:09.570Z,45.28
2022-08-12T12:57:09.565Z,43.67